createdAt,value
2018-08-30T00:01:41.604Z,5.60
2018-08-30T00:04:11.670Z,5.40
2018-08-30T00:06:42.158Z,5.70
2018-08-30T00:09:11.858Z,4.90
2018-08-30T00:11:41.652Z,6.07
2018-08-30T00:14:11.787Z,5.83
2018-08-30T00:16:41.823Z,5.63
2018-08-30T00:19:10.989Z,6.30
2018-08-30T00:21:42.794Z,5.67
2018-08-30T00:24:11.929Z,5.70
2018-08-30T00:26:41.232Z,5.93
2018-08-30T00:29:10.811Z,5.77
2018-08-30T00:31:40.937Z,5.90
2018-08-30T00:34:10.160Z,6.30
2018-08-30T00:36:57.701Z,6.10
2018-08-30T00:39:26.940Z,6.17
2018-08-30T00:41:56.003Z,5.80
2018-08-30T00:44:24.960Z,6.43
2018-08-30T00:46:53.985Z,6.00
2018-08-30T00:49:37.367Z,6.37
2018-08-30T00:52:06.570Z,6.50
2018-08-30T00:54:35.580Z,6.27
2018-08-30T00:57:04.623Z,5.63
2018-08-30T00:59:33.706Z,6.30
2018-08-30T01:02:02.935Z,5.83
2018-08-30T01:04:32.006Z,5.83
2018-08-30T01:07:01.430Z,6.30
2018-08-30T01:09:30.453Z,6.40
2018-08-30T01:11:59.800Z,6.67
2018-08-30T01:14:29.866Z,6.07
2018-08-30T01:17:00.694Z,5.90
2018-08-30T01:19:29.908Z,7.30
2018-08-30T01:21:58.923Z,7.57
2018-08-30T01:24:28.327Z,7.03
2018-08-30T01:26:57.496Z,7.00
2018-08-30T01:29:26.604Z,6.67
2018-08-30T01:31:55.779Z,6.80
2018-08-30T01:34:24.824Z,6.73
2018-08-30T01:36:54.100Z,6.13
2018-08-30T01:39:23.191Z,7.60
2018-08-30T01:41:52.301Z,6.53
2018-08-30T01:44:23.599Z,7.17
2018-08-30T01:46:53.022Z,6.40
2018-08-30T01:49:22.069Z,6.90
2018-08-30T01:51:51.158Z,6.70
2018-08-30T01:54:20.275Z,6.40
2018-08-30T01:56:49.412Z,6.73
2018-08-30T01:59:18.636Z,6.50
2018-08-30T02:01:47.809Z,6.20
2018-08-30T02:04:16.885Z,6.00
2018-08-30T02:06:45.985Z,6.10
2018-08-30T02:09:15.231Z,6.57
2018-08-30T02:11:44.309Z,6.50
2018-08-30T02:14:13.519Z,6.40
2018-08-30T02:16:42.577Z,6.60
2018-08-30T02:19:11.794Z,6.47
2018-08-30T02:21:41.918Z,6.10
2018-08-30T02:24:10.951Z,6.93
2018-08-30T02:26:40.611Z,6.63
2018-08-30T02:29:09.837Z,6.90
2018-08-30T02:31:39.618Z,6.40
2018-08-30T02:34:08.754Z,6.47
2018-08-30T02:36:38.331Z,6.77
2018-08-30T02:39:08.969Z,6.07
2018-08-30T02:41:38.600Z,5.93
2018-08-30T02:44:07.752Z,6.90
2018-08-30T02:46:37.408Z,6.20
2018-08-30T02:49:06.594Z,6.50
2018-08-30T02:51:35.729Z,6.33
2018-08-30T02:54:05.141Z,5.73
2018-08-30T02:57:00.373Z,5.57
2018-08-30T02:59:29.810Z,6.60
2018-08-30T03:01:59.067Z,5.80
2018-08-30T03:04:48.360Z,6.00
2018-08-30T03:07:17.803Z,6.83
2018-08-30T03:09:46.898Z,6.60
2018-08-30T03:12:15.915Z,6.57
2018-08-30T03:14:46.544Z,6.17
2018-08-30T03:17:15.756Z,6.27
2018-08-30T03:19:44.862Z,5.47
2018-08-30T03:22:13.903Z,5.30
2018-08-30T03:24:43.031Z,6.03
2018-08-30T03:27:12.092Z,5.27
2018-08-30T03:29:41.434Z,6.83
2018-08-30T03:32:10.877Z,5.57
2018-08-30T03:34:40.580Z,5.87
2018-08-30T03:37:10.653Z,5.27
2018-08-30T03:39:56.003Z,5.20
2018-08-30T03:42:25.156Z,5.37
2018-08-30T03:44:54.309Z,6.07
2018-08-30T03:47:23.465Z,5.53
2018-08-30T03:49:52.459Z,5.03
2018-08-30T03:52:21.503Z,5.50
2018-08-30T03:54:50.854Z,5.50
2018-08-30T03:57:20.123Z,5.20
2018-08-30T04:00:22.392Z,5.37
2018-08-30T04:02:51.791Z,5.30
2018-08-30T04:05:20.890Z,5.80
2018-08-30T04:07:50.003Z,5.17
2018-08-30T04:10:20.833Z,5.20
2018-08-30T04:12:49.892Z,5.00
2018-08-30T04:15:18.901Z,5.10
2018-08-30T04:17:47.961Z,5.73
2018-08-30T04:20:18.997Z,5.10
2018-08-30T04:22:48.134Z,5.73
2018-08-30T04:25:19.492Z,5.47
2018-08-30T04:27:48.552Z,5.60
2018-08-30T04:30:19.693Z,5.07
2018-08-30T04:32:48.660Z,5.37
2018-08-30T04:35:19.953Z,5.67
2018-08-30T04:37:49.055Z,5.40
2018-08-30T04:40:20.795Z,6.00
2018-08-30T04:42:49.891Z,5.80
2018-08-30T04:45:20.587Z,5.73
2018-08-30T04:47:49.649Z,5.40
2018-08-30T04:50:21.434Z,6.73
2018-08-30T04:52:50.523Z,5.40
2018-08-30T04:55:20.360Z,6.03
2018-08-30T04:57:49.407Z,5.53
2018-08-30T05:00:21.147Z,5.50
2018-08-30T05:02:50.298Z,5.20
2018-08-30T05:05:23.092Z,4.93
2018-08-30T05:08:00.885Z,4.70
2018-08-30T05:10:32.027Z,4.90
2018-08-30T05:13:02.644Z,4.93
2018-08-30T05:15:32.040Z,5.33
2018-08-30T05:18:01.271Z,5.47
2018-08-30T05:20:31.190Z,5.30
2018-08-30T05:23:00.374Z,4.97
2018-08-30T05:25:29.339Z,4.73
2018-08-30T05:28:01.743Z,4.90
2018-08-30T05:30:32.735Z,4.90
2018-08-30T05:33:02.298Z,5.27
2018-08-30T05:35:31.365Z,5.37
2018-08-30T05:38:00.268Z,5.13
2018-08-30T05:40:29.474Z,5.30
2018-08-30T05:43:00.733Z,5.60
2018-08-30T05:45:29.916Z,5.13
2018-08-30T05:47:58.927Z,4.60
2018-08-30T05:50:38.470Z,4.80
2018-08-30T05:53:11.864Z,5.13
2018-08-30T05:55:41.772Z,4.83
2018-08-30T05:58:11.736Z,4.50
2018-08-30T06:00:41.524Z,4.37
2018-08-30T06:03:10.735Z,4.80
2018-08-30T06:05:43.249Z,4.90
2018-08-30T06:08:15.066Z,4.40
2018-08-30T06:10:44.249Z,4.10
2018-08-30T06:13:14.944Z,4.73
2018-08-30T06:15:45.424Z,4.83
2018-08-30T06:18:14.597Z,4.97
2018-08-30T06:27:10.936Z,4.20
2018-08-30T06:32:53.695Z,4.80
2018-08-30T06:35:22.662Z,3.93
2018-08-30T06:37:52.892Z,4.97
2018-08-30T06:40:21.955Z,4.53
2018-08-30T06:42:50.978Z,4.90
2018-08-30T06:45:21.283Z,4.23
2018-08-30T06:47:50.335Z,4.30
2018-08-30T06:50:23.303Z,4.63
2018-08-30T06:52:52.298Z,4.87
2018-08-30T06:55:21.352Z,4.60
2018-08-30T06:57:50.382Z,4.00
2018-08-30T07:00:22.407Z,3.93
2018-08-30T07:02:51.508Z,4.00
2018-08-30T07:05:22.482Z,3.77
2018-08-30T07:07:51.575Z,3.70
2018-08-30T07:10:24.172Z,3.80
2018-08-30T07:12:53.279Z,4.40
2018-08-30T07:15:22.818Z,4.20
2018-08-30T07:17:51.976Z,4.47
2018-08-30T07:20:22.899Z,4.03
2018-08-30T07:22:51.844Z,4.73
2018-08-30T07:25:21.317Z,4.70
2018-08-30T07:27:50.426Z,4.50
2018-08-30T07:30:23.683Z,3.97
2018-08-30T07:32:52.783Z,4.67
2018-08-30T07:35:22.796Z,4.30
2018-08-30T07:37:51.905Z,4.50
2018-08-30T07:40:23.551Z,4.93
2018-08-30T07:42:52.651Z,4.97
2018-08-30T07:45:22.341Z,4.37
2018-08-30T07:47:51.409Z,4.60
2018-08-30T07:50:23.252Z,4.87
2018-08-30T07:52:52.427Z,4.13
2018-08-30T07:55:22.283Z,4.40
2018-08-30T07:57:51.355Z,4.40
2018-08-30T08:00:25.213Z,3.60
2018-08-30T08:02:54.744Z,3.63
2018-08-30T08:05:24.070Z,3.47
2018-08-30T08:07:53.146Z,3.80
2018-08-30T08:10:23.169Z,3.93
2018-08-30T08:12:52.213Z,3.67
2018-08-30T08:15:22.523Z,3.30
2018-08-30T08:17:51.700Z,3.40
2018-08-30T08:20:22.257Z,3.30
2018-08-30T08:22:51.371Z,3.63
2018-08-30T08:25:21.650Z,3.40
2018-08-30T08:48:07.262Z,3.90
2018-08-30T08:50:36.328Z,3.43
2018-08-30T08:53:05.387Z,3.53
2018-08-30T08:55:34.396Z,4.13
2018-08-30T08:58:03.518Z,3.90
2018-08-30T09:00:32.550Z,3.83
2018-08-30T09:03:01.519Z,4.60
2018-08-30T09:05:30.580Z,3.60
2018-08-30T09:07:59.586Z,3.50
2018-08-30T09:10:28.716Z,3.83
2018-08-30T09:12:57.771Z,4.00
2018-08-30T09:15:26.726Z,3.70
2018-08-30T09:17:55.707Z,4.30
2018-08-30T09:20:31.417Z,4.47
2018-08-30T09:23:00.555Z,4.20
2018-08-30T09:25:29.542Z,3.87
2018-08-30T09:27:58.580Z,3.67
2018-08-30T09:30:27.639Z,3.80
2018-08-30T09:32:56.696Z,4.10
2018-08-30T09:35:25.767Z,4.23
2018-08-30T09:37:54.780Z,4.43
2018-08-30T09:40:24.552Z,4.40
2018-08-30T09:42:53.722Z,4.10
2018-08-30T09:45:22.772Z,4.07
2018-08-30T09:47:51.776Z,4.60
2018-08-30T09:50:31.491Z,4.10
2018-08-30T09:53:00.480Z,3.83
2018-08-30T09:55:29.521Z,4.33
2018-08-30T09:57:58.692Z,4.10
2018-08-30T10:00:32.602Z,3.90
2018-08-30T10:03:01.720Z,3.60
2018-08-30T10:05:30.688Z,3.70
2018-08-30T10:07:59.613Z,3.77
2018-08-30T10:10:28.753Z,3.83
2018-08-30T10:12:57.775Z,3.70
2018-08-30T10:15:26.853Z,3.80
2018-08-30T10:17:55.936Z,3.67
2018-08-30T10:20:24.940Z,3.70
2018-08-30T10:22:54.052Z,4.47
2018-08-30T10:25:23.219Z,4.00
2018-08-30T10:27:52.309Z,3.93
2018-08-30T10:30:24.336Z,3.70
2018-08-30T10:32:53.322Z,3.90
2018-08-30T10:35:22.769Z,3.83
2018-08-30T10:37:51.795Z,3.77
2018-08-30T10:40:23.458Z,3.53
2018-08-30T10:42:52.591Z,4.03
2018-08-30T10:45:21.776Z,3.90
2018-08-30T10:47:50.759Z,3.47
2018-08-30T10:50:23.799Z,3.93
2018-08-30T10:52:53.516Z,3.63
2018-08-30T10:55:22.880Z,3.53
2018-08-30T10:57:56.575Z,3.80
2018-08-30T11:00:25.947Z,3.63
2018-08-30T11:02:55.261Z,3.90
2018-08-30T11:05:24.467Z,3.40
2018-08-30T11:07:54.887Z,3.73
2018-08-30T11:10:25.770Z,3.40
2018-08-30T11:12:56.978Z,3.13
2018-08-30T11:15:26.144Z,3.40
2018-08-30T11:17:55.331Z,3.60
2018-08-30T11:20:24.395Z,3.17
2018-08-30T11:22:53.415Z,3.23
2018-08-30T11:25:22.421Z,2.97
2018-08-30T11:27:51.411Z,2.80
2018-08-30T11:30:22.969Z,3.30
2018-08-30T11:32:52.058Z,3.33
2018-08-30T11:35:23.450Z,3.27
2018-08-30T11:37:52.643Z,3.60
2018-08-30T11:40:23.852Z,3.30
2018-08-30T11:42:53.988Z,3.10
2018-08-30T11:45:23.193Z,3.13
2018-08-30T11:47:52.399Z,2.97
2018-08-30T11:50:43.907Z,3.30
2018-08-30T11:53:13.092Z,3.30
2018-08-30T11:55:42.259Z,3.20
2018-08-30T11:58:11.324Z,3.23
2018-08-30T12:00:40.931Z,3.43
2018-08-30T12:03:10.289Z,3.17
2018-08-30T12:05:57.694Z,3.20
2018-08-30T12:08:26.729Z,2.83
2018-08-30T12:10:56.031Z,2.80
2018-08-30T12:13:24.997Z,3.00
2018-08-30T12:15:53.969Z,2.97
2018-08-30T12:18:23.004Z,2.60
2018-08-30T12:20:52.108Z,3.00
2018-08-30T12:23:21.146Z,3.53
2018-08-30T12:25:50.303Z,3.17
2018-08-30T12:28:21.068Z,3.00
2018-08-30T12:30:50.153Z,2.90
2018-08-30T12:33:19.252Z,3.27
2018-08-30T12:35:48.373Z,2.93
2018-08-30T12:38:17.414Z,3.80
2018-08-30T12:40:47.582Z,3.10
2018-08-30T12:43:23.503Z,3.03
2018-08-30T12:46:06.934Z,2.87
2018-08-30T12:48:44.229Z,2.93
2018-08-30T12:51:17.138Z,2.70
2018-08-30T12:53:51.344Z,3.40
2018-08-30T12:56:35.025Z,3.20
2018-08-30T12:59:12.489Z,2.83
2018-08-30T13:01:44.461Z,3.13
2018-08-30T13:04:16.108Z,3.70
2018-08-30T13:06:52.510Z,3.53
2018-08-30T13:09:21.904Z,3.50
2018-08-30T13:11:52.069Z,3.60
2018-08-30T13:14:21.137Z,3.77
2018-08-30T13:16:50.205Z,3.70
2018-08-30T13:19:19.567Z,3.77
2018-08-30T13:21:49.692Z,4.17
2018-08-30T13:24:19.522Z,3.67
2018-08-30T13:26:48.772Z,3.90
2018-08-30T13:29:18.364Z,3.10
2018-08-30T13:31:47.974Z,3.40
2018-08-30T13:34:17.787Z,3.70
2018-08-30T13:36:47.247Z,4.00
2018-08-30T13:39:16.914Z,3.77
2018-08-30T13:41:46.013Z,3.90
2018-08-30T13:44:15.774Z,3.73
2018-08-30T13:46:45.325Z,4.27
2018-08-30T13:49:14.620Z,4.30
2018-08-30T13:51:43.996Z,4.47
2018-08-30T13:54:13.397Z,4.43
2018-08-30T13:56:44.215Z,4.20
2018-08-30T13:59:14.343Z,4.27
2018-08-30T14:01:48.670Z,3.90
2018-08-30T14:04:18.587Z,3.67
2018-08-30T14:06:51.060Z,3.97
2018-08-30T14:09:21.751Z,4.07
2018-08-30T14:11:51.260Z,3.60
2018-08-30T14:14:20.451Z,3.93
2018-08-30T14:16:52.453Z,3.53
2018-08-30T14:19:25.011Z,3.47
2018-08-30T14:21:58.414Z,3.97
2018-08-30T14:24:28.775Z,3.60
2018-08-30T14:26:58.671Z,3.67
2018-08-30T14:29:27.570Z,3.70
2018-08-30T14:31:57.011Z,3.50
2018-08-30T14:34:26.207Z,3.90
2018-08-30T14:37:07.235Z,3.67
2018-08-30T14:39:37.026Z,3.90
2018-08-30T14:42:06.180Z,3.60
2018-08-30T14:44:35.217Z,3.70
2018-08-30T14:47:04.436Z,3.60
2018-08-30T14:49:33.404Z,3.60
2018-08-30T14:52:02.395Z,4.23
2018-08-30T14:54:31.605Z,3.73
2018-08-30T14:57:00.842Z,3.67
2018-08-30T14:59:30.658Z,4.13
2018-08-30T15:01:59.862Z,4.10
2018-08-30T15:04:28.842Z,3.93
2018-08-30T15:07:06.766Z,3.93
2018-08-30T15:09:35.747Z,4.10
2018-08-30T15:12:04.762Z,3.83
2018-08-30T15:14:46.179Z,3.80
2018-08-30T15:17:17.145Z,3.97
2018-08-30T15:19:46.414Z,3.97
2018-08-30T15:22:15.300Z,3.20
2018-08-30T15:24:44.387Z,4.00
2018-08-30T15:27:14.386Z,3.73
2018-08-30T15:29:44.072Z,3.80
2018-08-30T15:32:13.116Z,3.73
2018-08-30T15:34:42.639Z,3.27
2018-08-30T15:37:11.794Z,3.53
2018-08-30T15:39:43.588Z,3.77
2018-08-30T15:42:13.505Z,3.70
2018-08-30T15:44:42.570Z,3.70
2018-08-30T15:47:12.012Z,3.70
2018-08-30T15:49:41.364Z,3.40
2018-08-30T15:52:10.451Z,3.70
2018-08-30T15:54:40.223Z,4.03
2018-08-30T15:57:09.330Z,3.80
2018-08-30T15:59:49.587Z,3.70
2018-08-30T16:02:18.748Z,3.90
2018-08-30T16:04:47.800Z,4.10
2018-08-30T16:07:16.897Z,3.77
2018-08-30T16:09:45.884Z,3.80
2018-08-30T16:12:15.009Z,4.07
2018-08-30T16:14:44.076Z,4.27
2018-08-30T16:17:13.196Z,3.60
2018-08-30T16:19:56.383Z,3.93
2018-08-30T16:22:39.904Z,3.80
2018-08-30T16:25:08.993Z,3.73
2018-08-30T16:27:38.482Z,4.30
2018-08-30T16:30:07.463Z,4.00
2018-08-30T16:32:36.524Z,3.93
2018-08-30T16:35:05.847Z,4.10
2018-08-30T16:37:34.562Z,3.90
2018-08-30T16:40:08.763Z,3.50
2018-08-30T16:42:39.485Z,3.70
2018-08-30T16:45:08.495Z,3.87
2018-08-30T16:47:38.025Z,3.87
2018-08-30T16:50:07.060Z,4.20
2018-08-30T16:52:36.309Z,3.90
2018-08-30T16:55:12.054Z,3.90
2018-08-30T16:57:41.460Z,3.87
2018-08-30T17:00:10.581Z,3.83
2018-08-30T17:02:40.162Z,4.27
2018-08-30T17:05:09.260Z,4.10
2018-08-30T17:07:38.762Z,4.30
2018-08-30T17:10:07.737Z,4.07
2018-08-30T17:12:37.196Z,4.17
2018-08-30T17:15:06.569Z,4.03
2018-08-30T17:17:35.730Z,4.20
2018-08-30T17:20:06.404Z,3.70
2018-08-30T17:22:36.089Z,3.67
2018-08-30T17:25:05.237Z,4.13
2018-08-30T17:27:34.456Z,3.90
2018-08-30T17:30:03.447Z,3.87
2018-08-30T17:32:33.092Z,3.73
2018-08-30T17:35:02.144Z,3.83
2018-08-30T17:37:43.697Z,4.23
2018-08-30T17:40:13.030Z,4.80
2018-08-30T17:42:42.894Z,4.30
2018-08-30T17:45:12.525Z,4.37
2018-08-30T17:47:42.905Z,4.57
2018-08-30T17:50:13.649Z,3.90
2018-08-30T17:52:45.245Z,4.30
2018-08-30T17:55:40.615Z,4.10
2018-08-30T17:58:11.991Z,4.00
2018-08-30T18:00:43.664Z,4.53
2018-08-30T18:03:12.847Z,3.80
2018-08-30T18:05:41.958Z,4.30
2018-08-30T18:08:11.051Z,4.20
2018-08-30T18:10:41.228Z,4.03
2018-08-30T18:13:11.709Z,4.00
2018-08-30T18:15:42.040Z,4.00
2018-08-30T18:18:11.043Z,4.40
2018-08-30T18:20:40.741Z,4.53
2018-08-30T18:23:10.010Z,4.77
2018-08-30T18:25:39.816Z,4.87
2018-08-30T18:28:09.020Z,4.83
2018-08-30T18:30:39.925Z,4.43
2018-08-30T18:33:08.973Z,4.43
2018-08-30T18:35:38.567Z,4.63
2018-08-30T18:38:08.468Z,4.60
2018-08-30T18:40:38.246Z,5.23
2018-08-30T18:43:08.218Z,5.20
2018-08-30T18:45:39.050Z,4.80
2018-08-30T18:48:09.417Z,4.80
2018-08-30T18:50:39.079Z,5.53
2018-08-30T18:53:08.192Z,5.90
2018-08-30T18:55:38.182Z,5.60
2018-08-30T18:58:07.772Z,5.53
2018-08-30T19:00:37.342Z,5.40
2018-08-30T19:03:07.363Z,5.97
2018-08-30T19:05:39.378Z,6.07
2018-08-30T19:08:08.737Z,6.63
2018-08-30T19:10:39.225Z,7.00
2018-08-30T19:13:08.656Z,6.10
2018-08-30T19:15:43.483Z,7.40
2018-08-30T19:18:17.619Z,7.60
2018-08-30T19:20:51.928Z,7.53
2018-08-30T19:23:21.572Z,8.23
2018-08-30T19:25:51.258Z,7.70
2018-08-30T19:28:20.466Z,8.03
2018-08-30T19:30:49.908Z,8.27
2018-08-30T19:33:20.985Z,7.90
2018-08-30T19:35:55.243Z,8.17
2018-08-30T19:38:24.330Z,8.83
2018-08-30T19:40:58.355Z,8.23
2018-08-30T19:43:27.892Z,8.63
2018-08-30T19:45:56.990Z,8.90
2018-08-30T19:48:26.164Z,8.97
2018-08-30T19:50:55.786Z,9.83
2018-08-30T19:53:24.844Z,9.80
2018-08-30T19:55:52.919Z,8.43
2018-08-30T19:58:44.829Z,10.17
2018-08-30T20:01:14.189Z,8.93
2018-08-30T20:03:43.349Z,9.57
2018-08-30T20:06:12.468Z,9.47
2018-08-30T20:08:42.415Z,9.70
2018-08-30T20:11:12.024Z,9.33
2018-08-30T20:13:42.201Z,10.30
2018-08-30T20:16:11.240Z,8.83
2018-08-30T20:18:41.331Z,10.13
2018-08-30T20:21:10.504Z,10.83
2018-08-30T20:23:40.114Z,9.30
2018-08-30T20:26:09.143Z,9.20
2018-08-30T20:28:39.133Z,10.33
2018-08-30T20:31:08.147Z,10.07
2018-08-30T20:33:38.989Z,10.83
2018-08-30T20:36:08.271Z,9.83
2018-08-30T20:38:37.251Z,10.30
2018-08-30T20:41:06.607Z,10.40
2018-08-30T20:43:35.803Z,9.80
2018-08-30T20:46:04.854Z,10.60
2018-08-30T20:48:36.853Z,9.23
2018-08-30T20:51:07.253Z,10.50
2018-08-30T20:53:37.039Z,9.90
2018-08-30T20:56:06.180Z,10.57
2018-08-30T20:58:35.261Z,10.70
2018-08-30T21:01:04.787Z,9.30
2018-08-30T21:03:34.135Z,9.27
2018-08-30T21:06:03.572Z,10.67
2018-08-30T21:08:32.741Z,9.80
2018-08-30T21:11:11.771Z,10.30
2018-08-30T21:16:41.725Z,10.17
2018-08-30T21:19:12.529Z,10.97
2018-08-30T21:21:44.286Z,10.83
2018-08-30T21:24:13.377Z,10.70
2018-08-30T21:26:42.399Z,10.63
2018-08-30T21:29:11.686Z,10.43
2018-08-30T21:31:42.230Z,10.63
2018-08-30T21:34:11.328Z,10.43
2018-08-30T21:36:41.813Z,10.17
2018-08-30T21:39:11.008Z,10.17
2018-08-30T21:41:54.446Z,10.23
2018-08-30T21:44:23.590Z,10.80
2018-08-30T21:46:53.044Z,9.70
2018-08-30T21:49:23.381Z,9.10
2018-08-30T21:55:15.657Z,9.47
2018-08-30T21:57:46.991Z,9.97
2018-08-30T22:00:20.290Z,10.57
2018-08-30T22:02:49.523Z,9.93
2018-08-30T22:05:19.644Z,10.83
2018-08-30T22:07:48.798Z,11.27
2018-08-30T22:10:20.044Z,11.70
2018-08-30T22:12:49.194Z,12.37
2018-08-30T22:15:37.720Z,11.17
2018-08-30T22:18:07.724Z,12.90
2018-08-30T22:20:36.836Z,11.77
2018-08-30T22:23:06.017Z,12.17
2018-08-30T22:25:40.261Z,11.90
2018-08-30T22:28:13.946Z,12.20
2018-08-30T22:30:48.571Z,12.03
2018-08-30T22:33:43.727Z,12.43
2018-08-30T22:36:26.156Z,11.97
2018-08-30T22:39:05.204Z,12.63
2018-08-30T22:41:47.101Z,12.63
2018-08-30T22:44:17.143Z,13.17
2018-08-30T22:46:51.046Z,13.73
2018-08-30T22:49:20.592Z,13.93
2018-08-30T22:51:52.633Z,13.57
2018-08-30T22:54:21.836Z,14.13
2018-08-30T22:56:50.913Z,14.07
2018-08-30T22:59:20.402Z,13.33
2018-08-30T23:01:50.467Z,15.07
2018-08-30T23:04:19.640Z,15.83
2018-08-30T23:06:50.908Z,15.03
2018-08-30T23:09:20.714Z,15.87
2018-08-30T23:11:51.211Z,16.40
2018-08-30T23:14:21.140Z,16.57
2018-08-30T23:16:50.984Z,17.53
2018-08-30T23:19:21.013Z,17.23
2018-08-30T23:21:50.238Z,18.60
2018-08-30T23:24:19.402Z,18.37
2018-08-30T23:27:12.442Z,17.80
2018-08-30T23:29:42.036Z,17.77
2018-08-30T23:32:24.273Z,19.17
2018-08-30T23:34:53.640Z,18.37
2018-08-30T23:37:22.844Z,18.13
2018-08-30T23:39:52.183Z,17.73
2018-08-30T23:42:21.339Z,18.10
2018-08-30T23:44:50.902Z,17.53
2018-08-30T23:47:20.049Z,17.53
2018-08-30T23:49:50.430Z,19.37
2018-08-30T23:52:20.881Z,18.67
2018-08-30T23:54:50.572Z,17.40
2018-08-30T23:57:19.629Z,18.03
2018-08-30T23:59:59.641Z,19.10
